Time;durP1;ratioP1;P1;durP2;ratioP2;P2;SDS_P1;SDS_P2;PMS_P1;PMS_P2;Temp;Humidity;BMP_temperature;BMP_pressure;BME280_temperature;BME280_humidity;BME280_pressure;Samples;Min_cycle;Max_cycle;Signal;HPM_P1;HPM_P2
2023/11/12 00:01:32;;;;;;;;;;;;;;;20.88;30.92;96940.16;5014994;28;1245;-75
2023/11/12 00:03:57;;;;;;;;;;;;;;;20.69;31.05;96933.63;4998313;28;1977;-76
2023/11/12 00:06:23;;;;;;;;;;;;;;;20.75;31.00;96945.91;4982705;28;816;-75
2023/11/12 00:08:49;;;;;;;;;;;;;;;20.63;31.24;96943.97;4998708;28;755;-75
2023/11/12 00:11:15;;;;;;;;;;;;;;;20.48;31.54;96948.59;4998937;28;1238;-75
2023/11/12 00:13:40;;;;;;;;;;;;;;;20.30;31.67;96952.84;4998179;28;1194;-75
2023/11/12 00:16:06;;;;;;;;;;;;;;;20.54;31.54;96964.50;5014549;28;755;-75
2023/11/12 00:18:31;;;;;;;;;;;;;;;20.45;31.54;96969.25;5014765;28;813;-75
2023/11/12 00:20:57;;;;;;;;;;;;;;;20.64;31.15;96965.31;4998341;28;1411;-76
2023/11/12 00:23:24;;;;;;;;;;;;;;;20.62;31.48;96962.16;4998231;28;908;-75
2023/11/12 00:25:50;;;;;;;;;;;;;;;20.80;31.06;96959.44;5014525;28;1910;-75
2023/11/12 00:28:15;;;;;;;;;;;;;;;20.65;31.33;96975.38;5014716;28;1248;-75
2023/11/12 00:30:41;;;;;;;;;;;;;;;20.96;30.62;96980.22;4997926;28;1273;-75
2023/11/12 00:33:08;;;;;;;;;;;;;;;20.79;30.88;96982.53;5014688;28;779;-75
2023/11/12 00:35:34;;;;;;;;;;;;;;;20.94;30.64;96994.06;5000791;28;1440;-75
2023/11/12 00:37:59;;;;;;;;;;;;;;;20.81;30.99;96997.75;5001550;28;1087;-76
2023/11/12 00:40:25;;;;;;;;;;;;;;;20.63;31.11;96985.59;5018770;28;1147;-76
2023/11/12 00:42:53;;;;;;;;;;;;;;;20.63;31.40;96986.38;5018711;28;759;-75
2023/11/12 00:45:18;;;;;;;;;;;;;;;20.75;30.96;96974.16;5034127;28;1989;-75
2023/11/12 00:47:44;;;;;;;;;;;;;;;20.70;30.96;96980.44;5034406;28;1237;-75
2023/11/12 00:50:11;;;;;;;;;;;;;;;20.67;31.01;96987.00;5017625;28;1435;-74
2023/11/12 00:52:37;;;;;;;;;;;;;;;20.61;31.42;96977.53;4997550;28;1054;-75
2023/11/12 00:55:02;;;;;;;;;;;;;;;20.58;31.22;96981.31;4994468;28;1135;-75
2023/11/12 00:57:28;;;;;;;;;;;;;;;20.64;31.25;96982.28;4958936;28;1247;-75
2023/11/12 00:59:53;;;;;;;;;;;;;;;20.58;31.24;96984.16;4958975;28;1202;-75
2023/11/12 01:02:19;;;;;;;;;;;;;;;20.55;31.26;96982.22;4958904;28;1185;-76
2023/11/12 01:04:46;;;;;;;;;;;;;;;20.63;31.24;96986.38;4974831;28;1906;-75
2023/11/12 01:07:11;;;;;;;;;;;;;;;20.56;31.07;96980.97;4959106;28;1144;-75
2023/11/12 01:09:37;;;;;;;;;;;;;;;20.42;31.42;96975.84;4975042;28;916;-75
2023/11/12 01:12:02;;;;;;;;;;;;;;;20.68;30.67;96977.28;4975118;28;1185;-75
2023/11/12 01:14:28;;;;;;;;;;;;;;;21.15;30.61;96976.22;4974945;28;1068;-75
2023/11/12 01:16:55;;;;;;;;;;;;;;;21.39;30.83;96979.28;4974881;28;1120;-75
2023/11/12 01:19:20;;;;;;;;;;;;;;;21.42;30.79;96972.69;4958671;28;796;-75
2023/11/12 01:21:46;;;;;;;;;;;;;;;21.72;30.48;96958.91;4958802;28;1187;-75
2023/11/12 01:24:11;;;;;;;;;;;;;;;21.26;30.77;96965.25;4958850;28;1979;-75
2023/11/12 01:26:37;;;;;;;;;;;;;;;21.22;30.68;96967.44;4969827;28;1177;-75
2023/11/12 01:29:03;;;;;;;;;;;;;;;21.09;30.88;96963.94;5003815;28;797;-75
2023/11/12 01:31:28;;;;;;;;;;;;;;;20.92;31.07;96971.09;4997647;28;908;-75
2023/11/12 01:33:54;;;;;;;;;;;;;;;20.88;31.38;96974.09;4997802;28;1243;-75
2023/11/12 01:36:19;;;;;;;;;;;;;;;20.52;31.69;96969.00;5013875;28;1077;-75
2023/11/12 01:38:45;;;;;;;;;;;;;;;20.93;31.36;96964.19;4997718;28;1155;-75
2023/11/12 01:41:12;;;;;;;;;;;;;;;20.53;32.00;96964.97;4998303;28;1143;-75
2023/11/12 01:43:38;;;;;;;;;;;;;;;20.85;31.45;96962.91;4984898;28;1155;-75
2023/11/12 01:46:04;;;;;;;;;;;;;;;20.60;31.56;96956.19;5017424;28;1922;-75
2023/11/12 01:48:30;;;;;;;;;;;;;;;20.71;31.66;96970.69;5001110;28;796;-75
2023/11/12 01:50:56;;;;;;;;;;;;;;;20.56;31.80;96952.72;5001557;28;867;-76
2023/11/12 01:53:22;;;;;;;;;;;;;;;20.61;31.51;96963.41;4968802;28;1097;-76
2023/11/12 01:55:47;;;;;;;;;;;;;;;20.81;31.18;96966.66;5001020;28;751;-75
2023/11/12 01:58:14;;;;;;;;;;;;;;;20.76;31.24;96964.44;5000916;28;1268;-75
2023/11/12 02:00:40;;;;;;;;;;;;;;;20.75;31.19;96977.00;4984924;28;1559;-75
2023/11/12 02:03:09;;;;;;;;;;;;;;;20.88;31.18;96979.75;4984447;28;1357;-75
2023/11/12 02:05:35;;;;;;;;;;;;;;;20.65;31.49;96978.19;4997442;28;1989;-76
2023/11/12 02:08:03;;;;;;;;;;;;;;;20.60;31.38;96959.03;4965420;28;1221;-76
2023/11/12 02:10:35;;;;;;;;;;;;;;;20.52;31.42;96954.88;4997480;28;1130;-75
2023/11/12 02:13:01;;;;;;;;;;;;;;;20.80;31.09;96964.31;4982222;28;1139;-75
2023/11/12 02:15:26;;;;;;;;;;;;;;;20.97;30.50;96976.13;4997487;28;1111;-75
2023/11/12 02:17:52;;;;;;;;;;;;;;;20.88;30.89;96962.78;4997777;28;789;-75
2023/11/12 02:20:18;;;;;;;;;;;;;;;20.60;31.32;96953.38;4997378;28;1344;-75
2023/11/12 02:22:43;;;;;;;;;;;;;;;20.70;30.89;96943.69;4997191;28;931;-75
2023/11/12 02:25:09;;;;;;;;;;;;;;;20.73;31.04;96945.59;4997443;28;1907;-75
2023/11/12 02:27:35;;;;;;;;;;;;;;;20.36;31.67;96969.22;4997215;28;1250;-75
2023/11/12 02:30:01;;;;;;;;;;;;;;;21.31;30.89;97001.44;4997149;28;1273;-75
2023/11/12 02:32:31;;;;;;;;;;;;;;;21.55;30.73;97009.34;4997167;28;842;-75
2023/11/12 02:34:57;;;;;;;;;;;;;;;21.37;31.30;97018.59;4997180;28;1292;-75
2023/11/12 02:37:23;;;;;;;;;;;;;;;21.20;31.28;97029.34;4996973;28;1238;-75
2023/11/12 02:39:49;;;;;;;;;;;;;;;21.05;31.26;97028.34;4996911;28;1169;-75
2023/11/12 02:42:16;;;;;;;;;;;;;;;20.92;31.40;97019.16;5004984;28;1163;-75
2023/11/12 02:44:42;;;;;;;;;;;;;;;20.89;31.36;97023.72;5036078;28;1910;-75
2023/11/12 02:47:08;;;;;;;;;;;;;;;20.71;31.60;97020.78;5036533;28;822;-75
2023/11/12 02:49:33;;;;;;;;;;;;;;;20.76;31.35;97029.44;4999779;28;1140;-75
2023/11/12 02:51:59;;;;;;;;;;;;;;;20.73;31.30;97041.69;5000363;28;1401;-75
2023/11/12 02:54:25;;;;;;;;;;;;;;;20.85;31.38;97056.22;4976855;28;1430;-75
2023/11/12 02:56:50;;;;;;;;;;;;;;;20.94;31.07;97056.28;4977361;28;807;-76
2023/11/12 02:59:16;;;;;;;;;;;;;;;20.85;31.31;97059.03;4960791;28;920;-75
2023/11/12 03:01:43;;;;;;;;;;;;;;;21.05;30.65;97056.63;4945189;28;1141;-75
2023/11/12 03:04:09;;;;;;;;;;;;;;;20.90;31.16;97072.56;4938154;29;1902;-75
2023/11/12 03:06:35;;;;;;;;;;;;;;;20.68;31.11;97059.25;4938478;29;1013;-75
2023/11/12 03:09:00;;;;;;;;;;;;;;;20.95;30.94;97063.50;4954272;29;1209;-76
2023/11/12 03:11:26;;;;;;;;;;;;;;;20.87;30.73;97065.00;4938659;29;1323;-75
2023/11/12 03:13:52;;;;;;;;;;;;;;;20.59;31.31;97059.19;4922684;29;938;-75
2023/11/12 03:16:17;;;;;;;;;;;;;;;20.59;31.35;97067.69;4922573;29;1244;-75
2023/11/12 03:18:46;;;;;;;;;;;;;;;20.60;31.13;97066.41;4938280;29;1356;-75
2023/11/12 03:21:11;;;;;;;;;;;;;;;20.56;31.16;97060.09;4938230;29;1161;-76
2023/11/12 03:23:37;;;;;;;;;;;;;;;20.63;31.12;97076.81;4938127;29;1107;-75
2023/11/12 03:26:03;;;;;;;;;;;;;;;20.67;31.02;97077.44;4952907;28;1903;-76
2023/11/12 03:28:29;;;;;;;;;;;;;;;20.41;31.54;97067.50;4941211;28;1394;-75
2023/11/12 03:30:54;;;;;;;;;;;;;;;20.16;31.92;97066.38;4957310;28;1254;-75
2023/11/12 03:33:20;;;;;;;;;;;;;;;20.54;31.01;97068.28;4941344;29;1361;-75
2023/11/12 03:35:47;;;;;;;;;;;;;;;20.71;30.93;97072.44;4967349;28;1422;-75
2023/11/12 03:38:12;;;;;;;;;;;;;;;20.69;30.66;97086.28;4976427;28;1230;-75
2023/11/12 03:40:38;;;;;;;;;;;;;;;20.67;30.64;97077.44;4976470;28;830;-75
2023/11/12 03:43:04;;;;;;;;;;;;;;;20.39;30.96;97084.91;4976490;28;880;-75
2023/11/12 03:45:29;;;;;;;;;;;;;;;20.48;30.85;97081.41;4978591;28;1987;-75
2023/11/12 03:47:56;;;;;;;;;;;;;;;20.87;30.44;97073.50;4995738;28;1222;-76
2023/11/12 03:50:21;;;;;;;;;;;;;;;20.99;29.92;97089.59;4995748;28;1142;-75
2023/11/12 03:52:48;;;;;;;;;;;;;;;20.88;30.01;97092.03;4995589;28;1239;-74
2023/11/12 03:55:14;;;;;;;;;;;;;;;20.78;30.21;97089.16;4995361;28;1202;-76
2023/11/12 03:57:40;;;;;;;;;;;;;;;20.95;30.04;97095.38;4979423;28;1081;-75
2023/11/12 04:00:06;;;;;;;;;;;;;;;20.55;30.41;97103.75;4995514;28;1135;-75
2023/11/12 04:02:37;;;;;;;;;;;;;;;20.70;30.57;97093.50;4979762;28;652;-75
2023/11/12 04:05:03;;;;;;;;;;;;;;;20.99;30.22;97098.88;4978501;28;1977;-75
2023/11/12 04:07:28;;;;;;;;;;;;;;;21.25;30.43;97095.88;4978903;28;904;-75
2023/11/12 04:09:54;;;;;;;;;;;;;;;21.45;30.66;97095.47;4995572;28;787;-75
2023/11/12 04:12:20;;;;;;;;;;;;;;;21.55;30.85;97099.91;5001317;28;1231;-75
2023/11/12 04:14:45;;;;;;;;;;;;;;;21.54;30.39;97104.00;5034835;28;1449;-75
2023/11/12 04:17:11;;;;;;;;;;;;;;;21.04;31.34;97105.97;5034436;28;1262;-75
2023/11/12 04:19:36;;;;;;;;;;;;;;;20.98;31.01;97119.13;5034622;28;1107;-75
2023/11/12 04:22:02;;;;;;;;;;;;;;;21.00;31.25;97116.63;4994988;28;1203;-75
2023/11/12 04:24:28;;;;;;;;;;;;;;;21.00;30.88;97122.28;4978797;28;1898;-76
2023/11/12 04:26:53;;;;;;;;;;;;;;;20.69;31.22;97125.84;4994927;28;762;-75
2023/11/12 04:29:19;;;;;;;;;;;;;;;20.52;31.63;97138.56;4995419;28;794;-75
2023/11/12 04:31:44;;;;;;;;;;;;;;;20.72;31.08;97141.88;4940148;28;1270;-75
2023/11/12 04:34:10;;;;;;;;;;;;;;;20.97;31.00;97145.81;4940049;29;982;-75
2023/11/12 04:36:36;;;;;;;;;;;;;;;20.64;31.01;97149.06;4955955;28;1058;-75
2023/11/12 04:39:01;;;;;;;;;;;;;;;20.57;31.16;97146.47;4936644;29;904;-75
2023/11/12 04:41:27;;;;;;;;;;;;;;;20.60;31.20;97145.56;4920858;29;933;-76
2023/11/12 04:43:53;;;;;;;;;;;;;;;20.86;30.65;97145.44;4936877;29;1046;-75
2023/11/12 04:46:19;;;;;;;;;;;;;;;20.68;30.64;97137.63;4936846;29;1988;-76
2023/11/12 04:48:44;;;;;;;;;;;;;;;20.73;30.81;97145.50;4935391;29;1046;-75
2023/11/12 04:51:10;;;;;;;;;;;;;;;20.92;30.33;97146.41;4917909;29;922;-75
2023/11/12 04:53:37;;;;;;;;;;;;;;;20.66;30.82;97168.38;4945499;28;959;-75
2023/11/12 04:56:09;;;;;;;;;;;;;;;20.68;30.56;97168.72;4956042;28;910;-75
2023/11/12 04:58:35;;;;;;;;;;;;;;;20.62;30.49;97179.78;4955519;28;1006;-75
2023/11/12 05:01:02;;;;;;;;;;;;;;;20.67;30.43;97201.03;4955924;28;1059;-76
2023/11/12 05:03:27;;;;;;;;;;;;;;;20.86;30.08;97204.81;4986840;28;1361;-75
2023/11/12 05:05:53;;;;;;;;;;;;;;;20.85;30.08;97212.50;4994284;28;1910;-76
2023/11/12 05:08:19;;;;;;;;;;;;;;;20.84;30.02;97221.47;4994790;28;1010;-75
2023/11/12 05:10:45;;;;;;;;;;;;;;;20.67;30.29;97229.31;5027050;28;960;-75
2023/11/12 05:13:10;;;;;;;;;;;;;;;20.58;30.43;97232.84;5002002;28;1751;-75
2023/11/12 05:15:36;;;;;;;;;;;;;;;20.98;30.38;97237.88;5034851;28;934;-75
2023/11/12 05:18:05;;;;;;;;;;;;;;;21.33;30.06;97242.28;5039630;28;1233;-75
2023/11/12 05:20:32;;;;;;;;;;;;;;;21.55;29.81;97253.59;5026337;28;1066;-75
2023/11/12 05:22:58;;;;;;;;;;;;;;;21.53;29.77;97260.94;5042745;28;966;-75
2023/11/12 05:25:23;;;;;;;;;;;;;;;21.27;29.95;97272.38;5042046;28;1914;-75
2023/11/12 05:27:48;;;;;;;;;;;;;;;20.93;30.52;97275.25;5041860;28;980;-76
2023/11/12 05:30:14;;;;;;;;;;;;;;;20.70;30.52;97265.94;5025733;28;1004;-76
2023/11/12 05:32:40;;;;;;;;;;;;;;;20.71;30.72;97276.00;5050226;28;1442;-75
2023/11/12 05:35:05;;;;;;;;;;;;;;;20.60;30.95;97281.22;5022332;28;990;-75
2023/11/12 05:37:31;;;;;;;;;;;;;;;20.24;31.66;97288.03;5021610;28;1593;-75
2023/11/12 05:39:56;;;;;;;;;;;;;;;20.57;31.01;97299.06;5039390;28;1501;-75
2023/11/12 05:42:22;;;;;;;;;;;;;;;20.38;31.32;97297.28;5039488;28;932;-75
2023/11/12 05:44:47;;;;;;;;;;;;;;;20.23;31.68;97300.56;5005655;28;1976;-75
2023/11/12 05:47:14;;;;;;;;;;;;;;;20.52;31.06;97303.28;5021861;28;1124;-73
2023/11/12 05:49:39;;;;;;;;;;;;;;;20.44;31.28;97312.44;5022021;28;1134;-74
2023/11/12 05:52:05;;;;;;;;;;;;;;;20.53;31.08;97315.38;5021952;28;1576;-74
2023/11/12 05:54:30;;;;;;;;;;;;;;;20.78;30.52;97320.22;5004294;28;1051;-74
2023/11/12 05:56:56;;;;;;;;;;;;;;;20.50;30.99;97316.28;5022208;28;1080;-74
2023/11/12 05:59:21;;;;;;;;;;;;;;;20.48;30.79;97330.09;5037645;28;1594;-74
2023/11/12 06:01:47;;;;;;;;;;;;;;;20.89;30.38;97333.97;5038961;28;1510;-75
2023/11/12 06:04:13;;;;;;;;;;;;;;;20.42;31.21;97332.66;5021613;28;1910;-75
2023/11/12 06:06:39;;;;;;;;;;;;;;;20.61;30.79;97339.31;5004277;28;1254;-75
2023/11/12 06:09:07;;;;;;;;;;;;;;;20.57;30.56;97344.31;5005243;28;1147;-75
2023/11/12 06:11:35;;;;;;;;;;;;;;;20.70;30.66;97353.56;5005200;28;930;-74
2023/11/12 06:14:01;;;;;;;;;;;;;;;20.68;30.77;97344.75;5005159;28;936;-74
2023/11/12 06:16:27;;;;;;;;;;;;;;;20.84;30.24;97352.31;5021343;28;937;-74
2023/11/12 06:18:52;;;;;;;;;;;;;;;20.76;30.40;97351.75;5037906;28;1659;-75
2023/11/12 06:21:18;;;;;;;;;;;;;;;20.53;30.87;97360.59;5020798;28;1503;-75
2023/11/12 06:23:45;;;;;;;;;;;;;;;20.42;30.80;97360.13;4987244;28;1751;-75
2023/11/12 06:26:11;;;;;;;;;;;;;;;20.58;30.89;97362.06;5021085;28;1975;-75
2023/11/12 06:28:36;;;;;;;;;;;;;;;20.79;30.12;97370.63;5037144;28;1539;-74
2023/11/12 06:31:02;;;;;;;;;;;;;;;20.68;30.44;97373.03;5020966;28;1546;-75
2023/11/12 06:33:28;;;;;;;;;;;;;;;20.67;30.52;97370.63;5037182;28;1535;-75
2023/11/12 06:35:54;;;;;;;;;;;;;;;20.66;30.33;97369.06;5020917;28;1451;-74
2023/11/12 06:38:19;;;;;;;;;;;;;;;20.61;30.39;97389.41;5004799;28;1475;-75
2023/11/12 06:40:45;;;;;;;;;;;;;;;20.65;30.33;97379.59;5038005;28;1554;-75
2023/11/12 06:43:10;;;;;;;;;;;;;;;20.94;30.05;97389.97;5012201;28;2126;-74
2023/11/12 06:45:36;;;;;;;;;;;;;;;20.61;30.28;97393.03;5020176;28;1906;-74
2023/11/12 06:48:01;;;;;;;;;;;;;;;20.99;30.11;97397.88;5037670;28;1620;-75
2023/11/12 06:50:27;;;;;;;;;;;;;;;21.28;30.30;97397.66;5028781;28;1554;-75
2023/11/12 06:52:52;;;;;;;;;;;;;;;21.41;30.01;97394.84;5016076;28;1701;-74
2023/11/12 06:55:18;;;;;;;;;;;;;;;21.41;30.20;97394.84;4983658;28;1184;-74
2023/11/12 06:57:44;;;;;;;;;;;;;;;21.01;30.49;97389.72;4983338;28;952;-75
2023/11/12 07:00:10;;;;;;;;;;;;;;;21.13;30.22;97391.72;5016282;28;1039;-75
2023/11/12 07:02:37;;;;;;;;;;;;;;;20.96;30.47;97387.47;4982741;28;1813;-74
2023/11/12 07:05:04;;;;;;;;;;;;;;;20.96;30.17;97398.78;4999101;28;1906;-74
2023/11/12 07:07:30;;;;;;;;;;;;;;;20.98;30.32;97391.41;4997770;28;1378;-74
2023/11/12 07:09:56;;;;;;;;;;;;;;;20.93;30.26;97394.00;5015696;28;1569;-73
2023/11/12 07:12:22;;;;;;;;;;;;;;;20.66;30.66;97386.81;4996587;28;1480;-75
2023/11/12 07:14:47;;;;;;;;;;;;;;;20.63;30.80;97389.78;4998743;28;1629;-74
2023/11/12 07:17:13;;;;;;;;;;;;;;;20.48;31.26;97386.59;4999222;28;1490;-74
2023/11/12 07:19:40;;;;;;;;;;;;;;;20.47;31.14;97396.34;4998710;28;1405;-75
2023/11/12 07:22:06;;;;;;;;;;;;;;;20.58;30.94;97396.78;4982624;28;1544;-74
2023/11/12 07:24:34;;;;;;;;;;;;;;;20.59;31.01;97398.34;5031602;28;1898;-74
2023/11/12 07:26:59;;;;;;;;;;;;;;;20.43;31.35;97406.94;4998640;28;1598;-74
2023/11/12 07:29:25;;;;;;;;;;;;;;;20.61;31.24;97417.69;5015623;28;1618;-74
2023/11/12 07:31:50;;;;;;;;;;;;;;;20.63;31.09;97416.00;4982330;28;1380;-74
2023/11/12 07:34:16;;;;;;;;;;;;;;;20.93;30.45;97417.44;5015264;28;1484;-74
2023/11/12 07:36:41;;;;;;;;;;;;;;;20.49;31.09;97422.09;5015098;28;1675;-74
2023/11/12 07:39:07;;;;;;;;;;;;;;;20.60;30.92;97416.91;5013873;28;1605;-75
2023/11/12 07:41:33;;;;;;;;;;;;;;;20.34;31.42;97432.22;4985936;28;1596;-74
2023/11/12 07:43:59;;;;;;;;;;;;;;;20.79;30.67;97440.53;4963055;28;1148;-74
2023/11/12 07:46:24;;;;;;;;;;;;;;;20.79;30.44;97432.06;4995405;28;1906;-74
2023/11/12 07:48:50;;;;;;;;;;;;;;;21.01;30.37;97446.28;4979573;28;949;-74
2023/11/12 07:51:16;;;;;;;;;;;;;;;20.73;30.70;97431.84;4995592;28;975;-74
2023/11/12 07:53:41;;;;;;;;;;;;;;;20.62;30.87;97436.22;4995547;28;1020;-74
2023/11/12 07:56:10;;;;;;;;;;;;;;;20.69;30.53;97428.31;4985818;28;1305;-74
2023/11/12 07:58:35;;;;;;;;;;;;;;;20.42;31.35;97430.78;5015279;28;1012;-74
2023/11/12 08:01:01;;;;;;;;;;;;;;;20.52;30.93;97426.84;5014917;28;1056;-74
2023/11/12 08:03:27;;;;;;;;;;;;;;;20.53;30.94;97432.06;4998692;28;1245;-75
2023/11/12 08:05:52;;;;;;;;;;;;;;;20.47;30.96;97441.56;5015014;28;1993;-74
2023/11/12 08:08:18;;;;;;;;;;;;;;;20.68;30.86;97428.78;4998602;28;1235;-74
2023/11/12 08:10:43;;;;;;;;;;;;;;;20.85;30.15;97438.72;4998213;28;1081;-74
2023/11/12 08:13:09;;;;;;;;;;;;;;;20.50;31.20;97440.63;5014631;28;944;-74
2023/11/12 08:15:34;;;;;;;;;;;;;;;20.48;31.02;97431.81;5017343;28;1253;-74
2023/11/12 08:18:00;;;;;;;;;;;;;;;20.44;31.14;97436.75;5056789;28;916;-74
2023/11/12 08:20:25;;;;;;;;;;;;;;;20.54;31.12;97435.66;5038888;28;1037;-74
2023/11/12 08:22:51;;;;;;;;;;;;;;;20.46;31.07;97463.34;5038728;28;951;-74
2023/11/12 08:25:17;;;;;;;;;;;;;;;20.79;30.56;97435.66;5056776;28;1969;-74
2023/11/12 08:27:44;;;;;;;;;;;;;;;20.57;30.65;97443.22;5022576;28;1293;-74
2023/11/12 08:30:10;;;;;;;;;;;;;;;20.69;30.58;97448.09;5034226;28;958;-74
2023/11/12 08:32:35;;;;;;;;;;;;;;;20.26;31.30;97455.06;5003390;28;1677;-75
2023/11/12 08:35:01;;;;;;;;;;;;;;;20.57;30.77;97462.22;4998068;28;1286;-75
2023/11/12 08:37:26;;;;;;;;;;;;;;;20.58;30.74;97458.97;4994466;28;1389;-76
2023/11/12 08:39:55;;;;;;;;;;;;;;;20.72;30.54;97464.16;4995190;28;935;-76
2023/11/12 08:42:20;;;;;;;;;;;;;;;20.74;30.60;97447.53;4994609;28;1015;-76
2023/11/12 08:44:46;;;;;;;;;;;;;;;20.87;30.15;97452.41;4994462;28;1977;-76
2023/11/12 08:47:11;;;;;;;;;;;;;;;20.71;30.42;97459.75;4994876;28;935;-74
2023/11/12 08:49:37;;;;;;;;;;;;;;;20.69;30.59;97470.72;4994670;28;958;-74
2023/11/12 08:52:02;;;;;;;;;;;;;;;20.74;30.46;97470.16;4994788;28;921;-75
2023/11/12 08:54:28;;;;;;;;;;;;;;;20.55;30.99;97474.00;4994505;28;1004;-76
2023/11/12 08:56:54;;;;;;;;;;;;;;;20.91;30.05;97448.22;4978360;28;1206;-76
2023/11/12 08:59:20;;;;;;;;;;;;;;;20.81;30.59;97467.09;4975235;28;973;-76
2023/11/12 09:01:46;;;;;;;;;;;;;;;20.59;30.87;97456.94;4959225;28;909;-76
2023/11/12 09:04:12;;;;;;;;;;;;;;;20.89;30.11;97455.56;4943151;28;1529;-76
2023/11/12 09:06:38;;;;;;;;;;;;;;;20.49;31.12;97456.00;4974909;28;1906;-76
2023/11/12 09:09:05;;;;;;;;;;;;;;;20.70;30.43;97472.31;4962258;28;939;-76
2023/11/12 09:11:34;;;;;;;;;;;;;;;20.43;30.80;97474.75;4994407;28;995;-76
2023/11/12 09:14:01;;;;;;;;;;;;;;;20.64;30.31;97473.31;4962924;28;1002;-76
2023/11/12 09:16:26;;;;;;;;;;;;;;;20.92;30.05;97477.28;4994642;28;981;-76
2023/11/12 09:18:52;;;;;;;;;;;;;;;20.49;30.75;97467.31;4978406;28;1057;-75
2023/11/12 09:21:19;;;;;;;;;;;;;;;20.61;30.54;97466.53;4994240;28;946;-75
2023/11/12 09:23:45;;;;;;;;;;;;;;;20.51;30.80;97471.25;4978625;28;990;-75
2023/11/12 09:26:20;;;;;;;;;;;;;;;20.76;30.34;97467.66;4962139;28;1979;-75
2023/11/12 09:28:46;;;;;;;;;;;;;;;20.84;29.90;97464.63;4978077;28;972;-75
2023/11/12 09:31:12;;;;;;;;;;;;;;;20.70;30.20;97472.31;4991893;28;993;-75
2023/11/12 09:33:38;;;;;;;;;;;;;;;20.75;30.28;97468.91;4978214;28;938;-75
2023/11/12 09:36:04;;;;;;;;;;;;;;;21.05;29.63;97459.06;4977845;28;1115;-75
2023/11/12 09:38:29;;;;;;;;;;;;;;;20.55;30.61;97459.84;4994332;28;942;-75
2023/11/12 09:40:56;;;;;;;;;;;;;;;20.43;30.87;97457.78;4994155;28;893;-75
2023/11/12 09:43:22;;;;;;;;;;;;;;;20.60;30.54;97459.28;4977717;28;1250;-75
2023/11/12 09:45:49;;;;;;;;;;;;;;;21.03;30.25;97461.53;4977915;28;1898;-76
2023/11/12 09:48:35;;;;;;;;;;;;;;;21.67;29.96;97464.28;4977636;28;1485;-75
2023/11/12 09:51:05;;;;;;;;;;;;;;;21.75;29.99;97465.56;4977763;28;995;-75
2023/11/12 09:53:32;;;;;;;;;;;;;;;21.58;30.61;97467.00;4938945;29;1004;-75
2023/11/12 09:55:57;;;;;;;;;;;;;;;21.44;30.45;97459.78;4955034;29;1105;-76
2023/11/12 09:58:23;;;;;;;;;;;;;;;21.00;30.83;97467.31;4939122;29;1117;-75
2023/11/12 10:00:49;;;;;;;;;;;;;;;21.03;30.90;97466.41;4955360;29;941;-76
2023/11/12 10:03:15;;;;;;;;;;;;;;;20.92;31.05;97457.47;4957734;28;1011;-76
2023/11/12 10:05:40;;;;;;;;;;;;;;;20.79;30.90;97466.78;4958616;29;1894;-76
2023/11/12 10:08:06;;;;;;;;;;;;;;;20.85;31.24;97467.00;4948332;28;1135;-75
2023/11/12 10:10:33;;;;;;;;;;;;;;;20.93;30.98;97456.22;4972332;28;1912;-76
2023/11/12 10:12:59;;;;;;;;;;;;;;;20.51;31.63;97453.50;4961923;28;1686;-76
2023/11/12 10:15:27;;;;;;;;;;;;;;;20.72;31.37;97458.50;4961849;28;2207;-76
2023/11/12 10:17:53;;;;;;;;;;;;;;;20.51;31.64;97459.16;4961036;28;2098;-75
2023/11/12 10:20:22;;;;;;;;;;;;;;;20.65;31.19;97467.22;4961925;28;987;-75
2023/11/12 10:22:48;;;;;;;;;;;;;;;20.45;31.43;97463.78;4977855;28;1257;-75
2023/11/12 10:25:13;;;;;;;;;;;;;;;20.68;31.11;97469.16;5010406;28;1910;-75
2023/11/12 10:27:52;;;;;;;;;;;;;;;20.85;31.01;97466.22;5001536;28;939;-76
2023/11/12 10:30:19;;;;;;;;;;;;;;;20.89;30.69;97461.22;4985329;28;961;-75
2023/11/12 10:32:45;;;;;;;;;;;;;;;20.62;31.02;97461.66;5009457;28;1590;-76
2023/11/12 10:35:10;;;;;;;;;;;;;;;20.66;30.93;97463.13;5021095;28;1187;-75
2023/11/12 10:37:56;;;;;;;;;;;;;;;20.54;31.45;97464.72;5020727;28;1142;-75
2023/11/12 10:40:21;;;;;;;;;;;;;;;20.48;31.35;97483.47;5038363;28;1129;-75
2023/11/12 10:42:47;;;;;;;;;;;;;;;20.53;31.45;97473.66;5004720;28;932;-75
2023/11/12 10:45:14;;;;;;;;;;;;;;;20.55;31.09;97482.47;4987757;28;1902;-75
2023/11/12 10:47:39;;;;;;;;;;;;;;;20.65;30.91;97498.31;5004625;28;863;-75
2023/11/12 10:50:07;;;;;;;;;;;;;;;20.79;30.58;97497.88;5020854;28;1202;-75
2023/11/12 10:52:32;;;;;;;;;;;;;;;20.74;31.03;97498.44;5004563;28;1151;-75
2023/11/12 10:54:58;;;;;;;;;;;;;;;20.94;30.27;97509.53;5021162;28;925;-75
2023/11/12 10:57:24;;;;;;;;;;;;;;;20.81;30.72;97506.69;5020456;28;1666;-75
2023/11/12 10:59:49;;;;;;;;;;;;;;;20.83;30.39;97513.91;5020341;28;1565;-74
2023/11/12 11:02:19;;;;;;;;;;;;;;;20.97;30.54;97524.78;5012218;28;1588;-75
2023/11/12 11:04:45;;;;;;;;;;;;;;;20.89;30.57;97520.63;5012152;28;2019;-75
2023/11/12 11:07:11;;;;;;;;;;;;;;;20.99;30.03;97516.66;4996007;28;1543;-75
2023/11/12 11:09:36;;;;;;;;;;;;;;;20.93;30.07;97526.94;4996135;28;1797;-75
2023/11/12 11:12:03;;;;;;;;;;;;;;;20.60;30.76;97523.50;4979610;28;1677;-75
2023/11/12 11:14:29;;;;;;;;;;;;;;;20.60;30.60;97521.47;4994723;28;1593;-75
2023/11/12 11:16:54;;;;;;;;;;;;;;;20.81;30.26;97526.47;4979837;28;1476;-75
2023/11/12 11:19:38;;;;;;;;;;;;;;;20.48;31.20;97522.25;4995970;28;1459;-75
2023/11/12 11:22:23;;;;;;;;;;;;;;;20.79;30.68;97526.16;4993858;28;1483;-75
2023/11/12 11:24:57;;;;;;;;;;;;;;;20.68;30.44;97520.03;4994581;28;1907;-75
2023/11/12 11:27:26;;;;;;;;;;;;;;;20.42;30.94;97515.56;4996271;28;1092;-75
2023/11/12 11:30:14;;;;;;;;;;;;;;;20.46;30.78;97504.91;4980030;28;1274;-75
2023/11/12 11:33:05;;;;;;;;;;;;;;;20.98;30.62;97515.06;4995789;28;983;-75
2023/11/12 11:35:30;;;;;;;;;;;;;;;21.51;30.38;97513.34;4956855;29;1105;-75
2023/11/12 11:38:26;;;;;;;;;;;;;;;21.55;30.84;97518.88;4940818;29;982;-76
2023/11/12 11:40:55;;;;;;;;;;;;;;;21.53;30.81;97512.88;4862366;29;988;-76
2023/11/12 11:43:21;;;;;;;;;;;;;;;20.98;31.62;97512.22;4862519;29;1098;-75
2023/11/12 11:46:05;;;;;;;;;;;;;;;20.48;32.18;97519.44;4862484;29;1992;-75
2023/11/12 11:48:30;;;;;;;;;;;;;;;20.62;31.89;97521.81;4862603;29;926;-75
2023/11/12 11:50:57;;;;;;;;;;;;;;;20.73;31.44;97522.31;4862631;29;929;-75
2023/11/12 11:53:28;;;;;;;;;;;;;;;21.02;31.14;97527.06;4862491;29;1095;-75
2023/11/12 11:55:57;;;;;;;;;;;;;;;20.69;31.40;97527.25;4862752;29;1044;-75
2023/11/12 11:58:23;;;;;;;;;;;;;;;20.61;31.71;97522.28;4862389;29;954;-76
2023/11/12 12:00:59;;;;;;;;;;;;;;;20.79;31.24;97534.63;4862495;29;1247;-75
2023/11/12 12:03:26;;;;;;;;;;;;;;;20.59;31.52;97534.03;4862387;29;1015;-76
2023/11/12 12:05:52;;;;;;;;;;;;;;;20.66;31.42;97521.72;4862261;29;1904;-75
2023/11/12 12:08:18;;;;;;;;;;;;;;;20.89;31.06;97540.41;4862339;29;1003;-75
2023/11/12 12:10:45;;;;;;;;;;;;;;;20.86;30.92;97544.13;4862392;29;906;-75
2023/11/12 12:13:11;;;;;;;;;;;;;;;20.87;31.01;97531.56;4910305;29;1217;-75
2023/11/12 12:15:37;;;;;;;;;;;;;;;20.72;30.97;97534.81;4918588;29;953;-75
2023/11/12 12:18:18;;;;;;;;;;;;;;;20.71;31.12;97538.91;4999284;28;1094;-75
2023/11/12 12:20:44;;;;;;;;;;;;;;;20.63;31.17;97546.03;5014937;28;972;-75
2023/11/12 12:23:09;;;;;;;;;;;;;;;20.67;31.12;97541.03;4998097;28;952;-75
2023/11/12 12:25:47;;;;;;;;;;;;;;;20.55;31.17;97555.94;4997752;28;2004;-76
2023/11/12 12:28:14;;;;;;;;;;;;;;;20.65;31.10;97549.19;4982308;28;1032;-76
2023/11/12 12:30:40;;;;;;;;;;;;;;;20.68;31.01;97558.81;5036388;28;938;-76
2023/11/12 12:33:15;;;;;;;;;;;;;;;20.86;30.52;97553.41;5036680;28;918;-73
2023/11/12 12:35:40;;;;;;;;;;;;;;;20.80;30.52;97550.34;5036407;28;1057;-73
2023/11/12 12:38:06;;;;;;;;;;;;;;;20.64;31.06;97553.25;5036204;28;968;-73
2023/11/12 12:40:32;;;;;;;;;;;;;;;20.59;31.10;97556.66;4985214;28;1106;-73
2023/11/12 12:42:58;;;;;;;;;;;;;;;20.73;30.94;97559.06;5017714;28;941;-73
2023/11/12 12:45:24;;;;;;;;;;;;;;;20.87;30.35;97565.50;5036061;28;1989;-73
2023/11/12 12:47:50;;;;;;;;;;;;;;;20.76;30.75;97558.13;5018820;28;916;-73
2023/11/12 12:50:16;;;;;;;;;;;;;;;20.34;31.52;97568.63;5036088;28;1416;-73
2023/11/12 12:52:44;;;;;;;;;;;;;;;20.63;30.78;97571.47;5035550;28;1572;-75
2023/11/12 12:55:11;;;;;;;;;;;;;;;20.71;30.62;97572.84;5025193;28;1983;-75
2023/11/12 12:57:38;;;;;;;;;;;;;;;20.69;30.60;97566.84;5001355;28;1545;-74